createdAt,value
2018-09-20T00:00:20.295Z,18.43
2018-09-20T00:03:24.393Z,18.42
2018-09-20T00:06:28.570Z,18.41
2018-09-20T00:09:32.682Z,18.40
2018-09-20T00:12:36.623Z,18.38
2018-09-20T00:15:40.563Z,18.37
2018-09-20T00:18:44.476Z,18.41
2018-09-20T00:21:48.385Z,18.41
2018-09-20T00:24:52.335Z,18.36
2018-09-20T00:27:56.473Z,18.34
2018-09-20T00:31:00.405Z,18.35
2018-09-20T00:34:04.666Z,18.33
2018-09-20T00:37:08.574Z,18.33
2018-09-20T00:40:12.694Z,18.28
2018-09-20T00:43:16.980Z,18.27
2018-09-20T00:46:24.170Z,18.26
2018-09-20T00:49:28.085Z,18.24
2018-09-20T00:52:32.015Z,18.21
2018-09-20T00:55:35.976Z,18.23
2018-09-20T00:58:39.902Z,18.24
2018-09-20T01:01:44.164Z,18.24
2018-09-20T01:04:48.314Z,18.23
2018-09-20T01:07:52.237Z,18.23
2018-09-20T01:10:56.334Z,18.20
2018-09-20T01:14:00.477Z,18.23
2018-09-20T01:17:04.862Z,18.19
2018-09-20T01:20:08.813Z,18.16
2018-09-20T01:23:12.734Z,18.14
2018-09-20T01:26:17.019Z,18.12
2018-09-20T01:29:20.929Z,18.08
2018-09-20T01:32:25.078Z,18.05
2018-09-20T01:35:29.014Z,18.03
2018-09-20T01:38:33.112Z,17.99
2018-09-20T01:41:37.041Z,17.95
2018-09-20T01:44:41.123Z,17.93
2018-09-20T01:47:45.123Z,17.91
2018-09-20T01:50:49.035Z,17.89
2018-09-20T01:53:52.942Z,17.88
2018-09-20T01:56:56.862Z,17.88
2018-09-20T02:00:00.854Z,17.89
2018-09-20T02:03:05.082Z,17.87
2018-09-20T02:06:08.995Z,17.87
2018-09-20T02:09:13.086Z,17.86
2018-09-20T02:12:17.011Z,17.87
2018-09-20T02:15:20.924Z,17.89
2018-09-20T02:18:24.847Z,17.87
2018-09-20T02:21:28.837Z,17.85
2018-09-20T02:24:32.950Z,17.85
2018-09-20T02:27:36.858Z,17.82
2018-09-20T02:30:40.767Z,17.81
2018-09-20T02:33:44.670Z,17.81
2018-09-20T02:36:48.586Z,17.79
2018-09-20T02:39:52.486Z,17.76
2018-09-20T02:42:56.417Z,17.74
2018-09-20T02:46:00.318Z,17.69
2018-09-20T02:49:04.584Z,17.65
2018-09-20T02:52:08.729Z,17.66
2018-09-20T02:55:12.647Z,17.61
2018-09-20T02:58:16.568Z,17.56
2018-09-20T03:01:20.668Z,17.54
2018-09-20T03:04:24.571Z,17.52
2018-09-20T03:07:28.482Z,17.47
2018-09-20T03:10:32.381Z,17.42
2018-09-20T03:13:36.491Z,17.40
2018-09-20T03:16:40.423Z,17.36
2018-09-20T03:19:44.327Z,17.34
2018-09-20T03:22:48.573Z,17.30
2018-09-20T03:25:52.478Z,17.26
2018-09-20T03:28:56.392Z,17.23
2018-09-20T03:32:00.803Z,17.18
2018-09-20T03:35:05.055Z,17.17
2018-09-20T03:38:09.149Z,17.11
2018-09-20T03:41:13.063Z,17.08
2018-09-20T03:44:16.963Z,17.06
2018-09-20T03:47:20.884Z,17.03
2018-09-20T03:50:24.831Z,17.02
2018-09-20T03:53:28.804Z,16.98
2018-09-20T03:56:32.782Z,16.94
2018-09-20T03:59:36.678Z,16.91
2018-09-20T04:02:40.598Z,16.90
2018-09-20T04:05:44.536Z,16.89
2018-09-20T04:08:48.630Z,16.86
2018-09-20T04:11:52.543Z,16.84
2018-09-20T04:14:56.560Z,16.82
2018-09-20T04:18:00.816Z,16.77
2018-09-20T04:21:04.995Z,16.76
2018-09-20T04:24:08.923Z,16.73
2018-09-20T04:27:12.829Z,16.70
2018-09-20T04:30:16.917Z,16.68
2018-09-20T04:33:20.997Z,16.66
2018-09-20T04:36:25.114Z,16.64
2018-09-20T04:39:29.095Z,16.65
2018-09-20T04:42:33.024Z,16.63
2018-09-20T04:45:36.986Z,16.63
2018-09-20T04:48:40.941Z,16.64
2018-09-20T04:51:45.517Z,16.59
2018-09-20T04:54:49.467Z,16.59
2018-09-20T04:57:53.370Z,16.62
2018-09-20T05:00:57.622Z,16.60
2018-09-20T05:04:01.648Z,16.61
2018-09-20T05:07:05.584Z,16.59
2018-09-20T05:10:09.834Z,16.58
2018-09-20T05:13:14.067Z,16.56
2018-09-20T05:16:18.053Z,16.53
2018-09-20T05:19:21.967Z,16.55
2018-09-20T05:22:25.899Z,16.52
2018-09-20T05:25:29.833Z,16.52
2018-09-20T05:28:33.764Z,16.48
2018-09-20T05:31:37.719Z,16.54
2018-09-20T05:34:41.643Z,16.53
2018-09-20T05:37:45.590Z,16.52
2018-09-20T05:40:49.513Z,16.53
2018-09-20T05:43:53.551Z,16.54
2018-09-20T05:46:57.462Z,16.53
2018-09-20T05:50:01.377Z,16.54
2018-09-20T05:53:05.327Z,16.55
2018-09-20T05:56:09.246Z,16.56
2018-09-20T05:59:13.330Z,16.58
2018-09-20T06:02:17.426Z,16.60
2018-09-20T06:05:21.343Z,16.60
2018-09-20T06:08:25.254Z,16.61
2018-09-20T06:11:29.499Z,16.63
2018-09-20T06:14:33.434Z,16.67
2018-09-20T06:17:37.340Z,16.66
2018-09-20T06:20:41.269Z,16.68
2018-09-20T06:23:45.207Z,16.71
2018-09-20T06:26:49.121Z,16.73
2018-09-20T06:29:53.054Z,16.76
2018-09-20T06:32:56.972Z,16.79
2018-09-20T06:36:01.119Z,16.82
2018-09-20T06:39:08.575Z,16.84
2018-09-20T06:42:12.494Z,16.90
2018-09-20T06:45:16.407Z,16.95
2018-09-20T06:48:20.333Z,17.00
2018-09-20T06:51:24.282Z,17.07
2018-09-20T06:54:28.213Z,17.10
2018-09-20T06:57:36.003Z,17.16
2018-09-20T07:00:39.917Z,17.29
2018-09-20T07:03:44.034Z,17.35
2018-09-20T07:06:48.057Z,17.41
2018-09-20T07:09:51.968Z,17.53
2018-09-20T07:12:55.911Z,17.63
2018-09-20T07:15:59.827Z,17.63
2018-09-20T07:19:04.088Z,17.72
2018-09-20T07:22:08.171Z,17.88
2018-09-20T07:25:12.114Z,17.87
2018-09-20T07:28:16.250Z,17.89
2018-09-20T07:31:20.214Z,17.92
2018-09-20T07:34:24.127Z,17.99
2018-09-20T07:37:28.373Z,18.00
2018-09-20T07:40:32.297Z,18.06
2018-09-20T07:43:36.208Z,18.18
2018-09-20T07:46:40.319Z,18.16
2018-09-20T07:49:44.433Z,18.27
2018-09-20T07:52:48.699Z,18.43
2018-09-20T07:55:52.662Z,18.47
2018-09-20T07:58:56.936Z,18.40
2018-09-20T08:02:01.099Z,18.47
2018-09-20T08:05:05.179Z,18.48
2018-09-20T08:08:09.153Z,18.51
2018-09-20T08:11:13.403Z,18.52
2018-09-20T08:14:17.674Z,18.57
2018-09-20T08:17:21.931Z,18.61
2018-09-20T08:20:25.982Z,18.64
2018-09-20T08:23:30.057Z,18.68
2018-09-20T08:26:33.985Z,18.79
2018-09-20T08:29:37.911Z,18.83
2018-09-20T08:32:41.947Z,18.86
2018-09-20T08:35:45.917Z,19.00
2018-09-20T08:38:49.847Z,19.08
2018-09-20T08:41:53.755Z,19.16
2018-09-20T08:44:57.671Z,19.23
2018-09-20T08:48:01.789Z,19.28
2018-09-20T08:51:06.101Z,19.32
2018-09-20T08:54:10.196Z,19.37
2018-09-20T08:57:14.230Z,19.52
2018-09-20T09:00:18.340Z,19.53
2018-09-20T09:03:22.262Z,19.57
2018-09-20T09:06:26.178Z,19.63
2018-09-20T09:09:30.094Z,19.66
2018-09-20T09:12:34.342Z,19.81
2018-09-20T09:15:38.269Z,19.91
2018-09-20T09:18:42.174Z,20.08
2018-09-20T09:21:46.090Z,20.29
2018-09-20T09:24:50.061Z,20.36
2018-09-20T09:27:54.001Z,20.54
2018-09-20T09:30:57.927Z,20.68
2018-09-20T09:34:02.212Z,20.82
2018-09-20T09:37:06.335Z,20.81
2018-09-20T09:40:10.623Z,20.96
2018-09-20T09:43:14.551Z,20.95
2018-09-20T09:46:18.587Z,20.98
2018-09-20T09:49:22.522Z,21.10
2018-09-20T09:52:26.499Z,21.13
2018-09-20T09:55:30.476Z,21.20
2018-09-20T09:58:34.387Z,21.29
2018-09-20T10:01:38.372Z,21.45
2018-09-20T10:04:42.314Z,21.39
2018-09-20T10:07:46.278Z,21.44
2018-09-20T10:10:50.219Z,21.47
2018-09-20T10:13:54.226Z,21.41
2018-09-20T10:16:58.297Z,21.43
2018-09-20T10:20:02.269Z,21.44
2018-09-20T10:23:06.322Z,21.46
2018-09-20T10:26:10.538Z,21.64
2018-09-20T10:29:14.759Z,21.61
2018-09-20T10:32:18.707Z,21.78
2018-09-20T10:35:22.633Z,21.88
2018-09-20T10:38:26.570Z,21.88
2018-09-20T10:41:30.847Z,21.94
2018-09-20T10:44:34.759Z,21.96
2018-09-20T10:47:38.705Z,22.00
2018-09-20T10:50:42.627Z,22.03
2018-09-20T10:53:46.574Z,22.02
2018-09-20T10:56:50.527Z,22.08
2018-09-20T10:59:54.501Z,22.09
2018-09-20T11:02:58.671Z,22.08
2018-09-20T11:06:02.809Z,22.09
2018-09-20T11:09:08.726Z,22.20
2018-09-20T11:12:12.647Z,22.19
2018-09-20T11:15:16.791Z,22.25
2018-09-20T11:18:20.755Z,22.23
2018-09-20T11:21:24.684Z,22.38
2018-09-20T11:24:28.630Z,22.40
2018-09-20T11:27:32.563Z,22.43
2018-09-20T11:30:36.782Z,22.52
2018-09-20T11:33:40.749Z,22.45
2018-09-20T11:36:44.651Z,22.60
2018-09-20T11:39:48.798Z,22.69
2018-09-20T11:42:52.894Z,22.55
2018-09-20T11:45:56.859Z,22.50
2018-09-20T11:49:00.775Z,22.52
2018-09-20T11:52:04.726Z,22.51
2018-09-20T11:55:08.666Z,22.54
2018-09-20T11:58:12.614Z,22.52
2018-09-20T12:01:16.563Z,22.40
2018-09-20T12:04:20.653Z,22.41
2018-09-20T12:07:24.687Z,22.30
2018-09-20T12:10:28.639Z,22.25
2018-09-20T12:13:32.554Z,22.31
2018-09-20T12:16:36.716Z,22.31
2018-09-20T12:19:41.175Z,22.35
2018-09-20T12:22:45.121Z,22.35
2018-09-20T12:25:49.058Z,22.37
2018-09-20T12:28:53.207Z,22.37
2018-09-20T12:31:57.192Z,22.42
2018-09-20T12:35:01.226Z,22.45
2018-09-20T12:38:05.206Z,22.51
2018-09-20T12:41:09.340Z,22.55
2018-09-20T12:44:13.547Z,22.54
2018-09-20T12:47:17.831Z,22.51
2018-09-20T12:50:22.162Z,22.72
2018-09-20T12:53:26.438Z,22.76
2018-09-20T12:56:30.927Z,22.66
2018-09-20T12:59:34.874Z,22.56
2018-09-20T13:02:39.042Z,22.55
2018-09-20T13:05:43.599Z,22.51
2018-09-20T13:08:47.600Z,22.55
2018-09-20T13:11:51.881Z,22.61
2018-09-20T13:14:55.839Z,22.56
2018-09-20T13:17:59.793Z,22.62
2018-09-20T13:21:03.751Z,22.62
2018-09-20T13:24:07.707Z,22.65
2018-09-20T13:27:12.165Z,22.68
2018-09-20T13:30:16.327Z,22.79
2018-09-20T13:33:20.274Z,22.75
2018-09-20T13:36:24.799Z,22.86
2018-09-20T13:39:29.065Z,22.97
2018-09-20T13:42:33.022Z,22.95
2018-09-20T13:45:37.348Z,23.12
2018-09-20T13:48:41.638Z,23.09
2018-09-20T13:51:46.570Z,23.08
2018-09-20T13:54:50.520Z,23.05
2018-09-20T13:57:54.511Z,23.08
2018-09-20T14:00:58.438Z,23.08
2018-09-20T14:04:02.420Z,23.13
2018-09-20T14:07:06.772Z,23.15
2018-09-20T14:10:11.030Z,23.15
2018-09-20T14:13:15.028Z,23.22
2018-09-20T14:16:18.970Z,23.22
2018-09-20T14:19:22.901Z,23.30
2018-09-20T14:22:26.840Z,23.28
2018-09-20T14:25:30.954Z,23.34
2018-09-20T14:28:34.895Z,23.43
2018-09-20T14:31:38.842Z,23.40
2018-09-20T14:34:42.779Z,23.42
2018-09-20T14:37:46.784Z,23.44
2018-09-20T14:40:50.919Z,23.47
2018-09-20T14:43:55.102Z,23.35
2018-09-20T14:46:59.032Z,23.32
2018-09-20T14:50:03.560Z,23.30
2018-09-20T14:53:07.842Z,23.35
2018-09-20T14:56:11.792Z,23.36
2018-09-20T14:59:15.786Z,23.40
2018-09-20T15:02:19.997Z,23.47
2018-09-20T15:05:24.071Z,23.60
2018-09-20T15:08:28.172Z,23.52
2018-09-20T15:11:32.102Z,23.56
2018-09-20T15:14:36.257Z,23.52
2018-09-20T15:17:40.178Z,23.47
2018-09-20T15:20:44.119Z,23.41
2018-09-20T15:23:48.130Z,23.38
2018-09-20T15:26:52.139Z,23.32
2018-09-20T15:29:56.160Z,23.35
2018-09-20T15:33:00.497Z,23.35
2018-09-20T15:36:04.502Z,23.33
2018-09-20T15:39:10.854Z,23.33
2018-09-20T15:42:14.878Z,23.26
2018-09-20T15:45:19.204Z,23.22
2018-09-20T15:48:23.519Z,23.16
2018-09-20T15:51:27.530Z,23.14
2018-09-20T15:54:31.558Z,23.12
2018-09-20T15:57:35.568Z,23.05
2018-09-20T16:00:39.683Z,23.00
2018-09-20T16:03:43.749Z,22.96
2018-09-20T16:06:47.731Z,22.89
2018-09-20T16:09:51.703Z,22.84
2018-09-20T16:12:55.732Z,22.85
2018-09-20T16:15:59.955Z,22.80
2018-09-20T16:19:04.255Z,22.72
2018-09-20T16:22:08.451Z,22.71
2018-09-20T16:25:12.860Z,22.65
2018-09-20T16:28:33.046Z,22.58
2018-09-20T16:31:55.257Z,22.50
2018-09-20T16:36:14.186Z,22.43
2018-09-20T16:39:22.051Z,22.36
2018-09-20T16:42:29.219Z,22.31
2018-09-20T16:45:33.211Z,22.25
2018-09-20T16:48:37.122Z,22.19
2018-09-20T16:51:41.115Z,22.14
2018-09-20T16:54:45.812Z,22.09
2018-09-20T16:57:53.273Z,22.03
2018-09-20T17:00:57.183Z,21.93
2018-09-20T17:04:01.203Z,21.87
2018-09-20T17:07:05.307Z,21.79
2018-09-20T17:10:09.599Z,21.67
2018-09-20T17:13:13.986Z,21.59
2018-09-20T17:16:18.305Z,21.50
2018-09-20T17:19:22.277Z,21.41
2018-09-20T17:22:26.215Z,21.33
2018-09-20T17:25:30.240Z,21.24
2018-09-20T17:28:34.306Z,21.17
2018-09-20T17:31:38.285Z,21.08
2018-09-20T17:34:42.629Z,21.00
2018-09-20T17:37:47.654Z,20.92
2018-09-20T17:40:55.896Z,20.83
2018-09-20T17:44:04.551Z,20.75
2018-09-20T17:47:08.787Z,20.70
2018-09-20T17:50:13.053Z,20.59
2018-09-20T17:53:17.272Z,20.52
2018-09-20T17:56:21.642Z,20.48
2018-09-20T17:59:25.593Z,20.39
2018-09-20T18:02:29.559Z,20.29
2018-09-20T18:05:33.576Z,20.25
2018-09-20T18:08:37.506Z,20.17
2018-09-20T18:11:41.635Z,20.12
2018-09-20T18:14:47.118Z,20.05
2018-09-20T18:17:51.152Z,20.00
2018-09-20T18:20:57.055Z,19.93
2018-09-20T18:24:01.044Z,19.88
2018-09-20T18:27:05.694Z,19.84
2018-09-20T18:30:09.697Z,19.79
2018-09-20T18:33:14.231Z,19.73
2018-09-20T18:36:18.176Z,19.69
2018-09-20T18:39:22.524Z,19.63
2018-09-20T18:42:26.541Z,19.58
2018-09-20T18:45:30.656Z,19.53
2018-09-20T18:48:34.610Z,19.47
2018-09-20T18:51:41.942Z,19.41
2018-09-20T18:54:46.130Z,19.37
2018-09-20T18:57:50.153Z,19.32
2018-09-20T19:00:54.312Z,19.27
2018-09-20T19:03:58.613Z,19.23
2018-09-20T19:07:02.859Z,19.20
2018-09-20T19:10:07.930Z,19.17
2018-09-20T19:13:11.969Z,19.11
2018-09-20T19:16:17.435Z,19.07
2018-09-20T19:19:21.451Z,19.04
2018-09-20T19:22:26.959Z,19.03
2018-09-20T19:25:30.995Z,18.99
2018-09-20T19:28:35.314Z,18.97
2018-09-20T19:31:39.365Z,18.95
2018-09-20T19:34:43.385Z,18.93
2018-09-20T19:37:47.454Z,18.94
2018-09-20T19:40:51.445Z,18.90
2018-09-20T20:58:03.075Z,18.39
2018-09-20T21:01:10.083Z,18.40
2018-09-20T21:04:14.877Z,18.35
2018-09-20T21:07:19.983Z,18.34
2018-09-20T21:10:25.337Z,18.32
2018-09-20T21:13:30.212Z,18.30
2018-09-20T21:16:34.893Z,18.24
2018-09-20T21:19:39.543Z,18.22
2018-09-20T21:22:44.333Z,18.20
2018-09-20T21:25:48.923Z,18.21
2018-09-20T21:28:53.634Z,18.18
2018-09-20T21:31:58.439Z,18.14
2018-09-20T21:35:05.183Z,18.09
2018-09-20T21:38:09.832Z,18.08
2018-09-20T21:41:15.414Z,18.10
2018-09-20T21:44:20.123Z,18.08
2018-09-20T21:47:25.768Z,18.05
2018-09-20T21:50:30.444Z,18.07
2018-09-20T21:53:35.285Z,18.05
2018-09-20T21:56:39.794Z,18.07
2018-09-20T21:59:44.514Z,18.06
2018-09-20T22:02:54.194Z,18.05
2018-09-20T22:05:58.833Z,18.05
2018-09-20T22:09:03.602Z,18.05
2018-09-20T22:12:08.047Z,18.03
2018-09-20T22:15:16.780Z,18.02
2018-09-20T22:18:21.580Z,18.03
2018-09-20T22:21:26.214Z,17.99
2018-09-20T22:24:30.433Z,17.98
2018-09-20T22:27:34.662Z,17.97
2018-09-20T22:30:38.790Z,17.96
2018-09-20T22:33:42.973Z,17.93
2018-09-20T22:36:47.145Z,17.92
2018-09-20T22:39:51.738Z,17.92
2018-09-20T22:42:55.927Z,17.89
2018-09-20T22:46:00.414Z,17.88
2018-09-20T22:49:04.485Z,17.85
2018-09-20T22:52:08.906Z,17.80
2018-09-20T22:55:13.054Z,17.79
2018-09-20T22:58:17.106Z,17.78
2018-09-20T23:01:21.155Z,17.77
2018-09-20T23:04:25.445Z,17.74
2018-09-20T23:07:29.705Z,17.68
2018-09-20T23:10:33.729Z,17.68
2018-09-20T23:13:38.114Z,17.64
2018-09-20T23:16:42.185Z,17.61
2018-09-20T23:19:46.386Z,17.59
2018-09-20T23:22:51.033Z,17.55
2018-09-20T23:25:55.034Z,17.52
2018-09-20T23:28:59.647Z,17.52
2018-09-20T23:32:04.176Z,17.50
2018-09-20T23:35:08.595Z,17.50
2018-09-20T23:38:12.595Z,17.49
2018-09-20T23:41:16.964Z,17.46
2018-09-20T23:44:21.069Z,17.44
2018-09-20T23:47:25.155Z,17.41
2018-09-20T23:50:29.594Z,17.41
2018-09-20T23:53:34.235Z,17.40
2018-09-20T23:56:38.303Z,17.42
2018-09-20T23:59:42.401Z,17.40
